Terminal Aerodrome Forecast
Issued by NWS

Home | Current Version | Previous Version | Graphics & Text | Print | Product List | Glossary On
Versions: 1 2 3 4 5 6 7 8 9 10 11 12 13 14 15 16 17 18 19 20 21 22 23 24 25 26 27 28 29 30 31 32 33 34 35 36 37 38 39 40 41 42 43 44 45 46 47 48
000
FTUS43 KGRB 191100
TAFRHI
TAF
KRHI 191126Z 1912/2012 VRB03KT 6SM BR SCT005 OVC012
      TEMPO 1912/1914 2SM BR BKN005
     FM191400 29005KT 6SM BR SCT007 BKN015
      TEMPO 1914/1916 3SM -SHRA BR BKN009
     FM191600 29006KT 6SM -SHRA SCT012 BKN020
     FM200300 32003KT 1 1/2SM BR SCT004 BKN010
     FM200500 00000KT 3/4SM BR OVC004=

USA.gov is the U.S. government's official web portal to all federal, state and local government web resources and services.